Julian, Nebraska
Current Conditions -  °F | °C
As of 4:15 PM on Monday 22 Dec 2014 (Local Time) from KAFK Reporting Station
Light Rain Light Rain  
Wind Chill: 39°   Ceiling: 4000
Heat Index: 43°   Visibility: 10mi
Dew Point: 43°   Wind: 7mph
Humidity: 100%   Direction: 310°NW
Pressure: 29.4"   Gusts: NA
Location:  40.51°N, 95.86°W
Report Text: KAFK 222115Z AUTO 31006KT 10SM -RA SCT020 SCT026 OVC040 06/06 A2940 RMK AO2 T00600060
Loading
Personal Weather Stations






























Interactive Weather Map New forecast layout! Learn more

10-Day Weather Forecast

Advertisements
Track Severe Weather on mobile